Time;durP1;ratioP1;P1;durP2;ratioP2;P2;SDS_P1;SDS_P2;PMS_P1;PMS_P2;Temp;Humidity;BMP_temperature;BMP_pressure;BME280_temperature;BME280_humidity;BME280_pressure;Samples;Min_cycle;Max_cycle;Signal;HPM_P1;HPM_P2
2023/11/11 00:01:10;;;;;;;;;10.75;9.25;;;;;-143.90;100.00;74552.03;4987409;28;102542;-72
2023/11/11 00:03:37;;;;;;;;;16.50;16.25;;;;;-143.90;100.00;74552.03;4982552;28;102041;-73
2023/11/11 00:06:04;;;;;;;;;15.50;14.25;;;;;-143.90;100.00;74549.97;4972217;28;102058;-73
2023/11/11 00:08:34;;;;;;;;;13.00;10.00;;;;;-143.90;100.00;74549.97;4989038;28;104486;-72
2023/11/11 00:11:02;;;;;;;;;11.50;10.00;;;;;-143.90;100.00;74545.84;4984546;28;102676;-73
2023/11/11 00:13:29;;;;;;;;;13.50;11.50;;;;;-143.90;100.00;74539.66;4992395;28;102226;-73
2023/11/11 00:15:55;;;;;;;;;12.50;12.00;;;;;-143.90;100.00;74543.78;4966205;28;102216;-73
2023/11/11 00:18:22;;;;;;;;;12.50;9.75;;;;;-143.90;100.00;74539.66;4962565;28;104652;-74
2023/11/11 00:20:49;;;;;;;;;9.50;8.50;;;;;-143.90;100.00;74535.50;4965558;28;102264;-73
2023/11/11 00:23:16;;;;;;;;;5.00;3.50;;;;;-143.90;100.00;74531.38;4983040;28;101917;-73
2023/11/11 00:25:43;;;;;;;;;14.75;11.25;;;;;-143.90;100.00;74533.44;4977092;28;102091;-73
2023/11/11 00:28:10;;;;;;;;;8.75;8.25;;;;;-143.90;100.00;74527.25;4982701;28;105401;-73
2023/11/11 00:30:38;;;;;;;;;15.75;13.75;;;;;-143.90;100.00;74535.50;4965691;28;102285;-73
2023/11/11 00:33:08;;;;;;;;;20.00;19.50;;;;;-143.90;100.00;74539.66;4969467;28;102005;-73
2023/11/11 00:35:35;;;;;;;;;16.50;14.75;;;;;-143.90;100.00;74531.38;4972858;28;102105;-74
2023/11/11 00:38:03;;;;;;;;;13.50;11.50;;;;;-143.90;100.00;74535.50;4964589;28;105627;-73
2023/11/11 00:40:30;;;;;;;;;16.00;15.00;;;;;-143.90;100.00;74531.38;4982302;28;102185;-73
2023/11/11 00:42:57;;;;;;;;;17.00;16.25;;;;;-143.90;100.00;74533.44;4971377;28;102279;-73
2023/11/11 00:45:24;;;;;;;;;14.25;11.25;;;;;-143.90;100.00;74535.50;4967148;28;102040;-73
2023/11/11 00:47:51;;;;;;;;;11.50;9.75;;;;;-143.90;100.00;74527.25;4985750;28;103663;-73
2023/11/11 00:50:17;;;;;;;;;10.50;10.50;;;;;-143.90;100.00;74527.25;4982943;28;101970;-73
2023/11/11 00:52:44;;;;;;;;;9.00;8.00;;;;;-143.90;100.00;74531.38;4979152;28;103123;-73
2023/11/11 00:55:11;;;;;;;;;10.00;10.00;;;;;-143.90;100.00;74531.38;4988357;28;102067;-73
2023/11/11 00:57:39;;;;;;;;;15.25;10.75;;;;;-143.90;100.00;74531.38;4968776;28;105341;-72
2023/11/11 01:00:10;;;;;;;;;13.00;10.00;;;;;-143.90;100.00;74535.50;4969030;28;102026;-73
2023/11/11 01:02:37;;;;;;;;;16.75;13.00;;;;;-143.90;100.00;74541.72;4986498;28;101971;-73
2023/11/11 01:05:04;;;;;;;;;10.00;8.75;;;;;-143.90;100.00;74539.66;4982643;28;102593;-73
2023/11/11 01:07:31;;;;;;;;;0.25;0.00;;;;;-143.90;100.00;74537.56;4985455;28;105413;-74
2023/11/11 01:09:58;;;;;;;;;10.00;10.00;;;;;-143.90;100.00;74541.72;4992290;28;102302;-73
2023/11/11 01:12:25;;;;;;;;;11.75;10.50;;;;;-143.90;100.00;74539.66;4964033;28;102054;-73
2023/11/11 01:14:52;;;;;;;;;7.25;6.75;;;;;-143.90;100.00;74545.84;4989344;28;102021;-74
2023/11/11 01:17:19;;;;;;;;;6.75;6.25;;;;;-143.90;100.00;74541.72;4979694;28;104095;-74
2023/11/11 01:19:46;;;;;;;;;8.25;7.25;;;;;-143.90;100.00;74535.50;4978111;28;102842;-73
2023/11/11 01:22:13;;;;;;;;;8.75;6.75;;;;;-143.90;100.00;74541.72;4984496;28;102053;-73
2023/11/11 01:24:41;;;;;;;;;5.75;4.50;;;;;-143.90;100.00;74539.66;4965111;28;102621;-74
2023/11/11 01:27:08;;;;;;;;;4.50;4.25;;;;;-143.90;100.00;74547.91;4984559;28;105433;-72
2023/11/11 01:29:34;;;;;;;;;4.25;3.75;;;;;-143.90;100.00;74543.78;4976070;28;102171;-73
2023/11/11 01:32:06;;;;;;;;;10.00;8.00;;;;;-143.90;100.00;74543.78;4976601;28;102054;-72
2023/11/11 01:34:34;;;;;;;;;7.25;6.75;;;;;-143.90;100.00;74541.72;4981163;28;102689;-73
2023/11/11 01:37:08;;;;;;;;;8.50;6.75;;;;;-143.90;100.00;74539.66;4971067;28;104374;-73
2023/11/11 01:39:35;;;;;;;;;9.25;7.25;;;;;-143.90;100.00;74535.50;4984360;28;102244;-73
2023/11/11 01:42:03;;;;;;;;;8.00;6.25;;;;;-143.90;100.00;74535.50;4996412;28;102081;-72
2023/11/11 01:44:31;;;;;;;;;6.00;6.00;;;;;-143.90;100.00;74529.31;4988749;28;102226;-72
2023/11/11 01:46:57;;;;;;;;;7.00;5.25;;;;;-143.90;100.00;74525.19;4980152;28;104241;-73
2023/11/11 01:49:24;;;;;;;;;7.00;7.00;;;;;-143.90;100.00;74531.38;4987319;28;102171;-73
2023/11/11 01:51:52;;;;;;;;;7.75;5.50;;;;;-143.90;100.00;74523.09;4969775;28;102240;-73
2023/11/11 01:54:20;;;;;;;;;6.00;3.00;;;;;-143.90;100.00;74514.84;4966809;28;102546;-72
2023/11/11 01:56:47;;;;;;;;;4.50;4.50;;;;;-143.90;100.00;74516.91;4968840;28;105739;-72
2023/11/11 01:59:14;;;;;;;;;4.00;3.00;;;;;-143.90;100.00;74512.78;4969920;28;102111;-74
2023/11/11 02:01:40;;;;;;;;;4.50;4.00;;;;;-143.90;100.00;74502.44;4974968;28;101882;-74
2023/11/11 02:04:08;;;;;;;;;3.00;2.75;;;;;-143.90;100.00;74506.56;4965151;28;103222;-74
2023/11/11 02:06:35;;;;;;;;;3.75;2.50;;;;;-143.90;100.00;74496.25;4950353;28;104090;-74
2023/11/11 02:09:03;;;;;;;;;1.25;1.25;;;;;-143.90;100.00;74500.38;4971508;28;102170;-73
2023/11/11 02:11:31;;;;;;;;;1.00;1.00;;;;;-143.90;100.00;74502.44;4973957;28;102413;-74
2023/11/11 02:13:58;;;;;;;;;2.25;2.25;;;;;-143.90;100.00;74500.38;4967888;28;102575;-73
2023/11/11 02:16:27;;;;;;;;;1.50;1.50;;;;;-143.90;100.00;74494.16;4972567;28;103508;-74
2023/11/11 02:18:54;;;;;;;;;3.00;1.25;;;;;-143.90;100.00;74494.16;4968792;28;102132;-73
2023/11/11 02:21:21;;;;;;;;;1.50;1.50;;;;;-143.90;100.00;74490.03;4965297;28;102232;-73
2023/11/11 02:23:48;;;;;;;;;2.00;2.00;;;;;-143.90;100.00;74502.44;4947321;28;102575;-73
2023/11/11 02:26:15;;;;;;;;;3.50;2.00;;;;;-143.90;100.00;74506.56;4965985;28;104311;-74
2023/11/11 02:28:42;;;;;;;;;1.75;1.50;;;;;-143.90;100.00;74500.38;4962347;28;102226;-74
2023/11/11 02:31:08;;;;;;;;;4.75;4.00;;;;;-143.90;100.00;74500.38;4971622;28;102207;-73
2023/11/11 02:33:35;;;;;;;;;3.00;2.25;;;;;-143.90;100.00;74494.16;4974048;28;101986;-74
2023/11/11 02:36:06;;;;;;;;;2.25;2.25;;;;;-143.90;100.00;74494.16;4965622;28;103269;-74
2023/11/11 02:38:33;;;;;;;;;3.00;3.00;;;;;-143.90;100.00;74494.16;4952469;28;102318;-72
2023/11/11 02:40:59;;;;;;;;;6.00;2.50;;;;;-143.90;100.00;74502.44;4968777;28;102151;-74
2023/11/11 02:43:26;;;;;;;;;4.00;4.00;;;;;-143.90;100.00;74494.16;4973711;28;102051;-74
2023/11/11 02:45:53;;;;;;;;;3.00;3.00;;;;;-143.90;100.00;74502.44;4970847;28;104497;-73
2023/11/11 02:48:20;;;;;;;;;2.00;2.00;;;;;-143.90;100.00;74492.09;4964640;28;102207;-74
2023/11/11 02:50:47;;;;;;;;;5.00;3.00;;;;;-143.90;100.00;74500.38;4967260;28;102589;-74
2023/11/11 02:53:13;;;;;;;;;4.00;3.25;;;;;-143.90;100.00;74490.03;4953980;28;103878;-72
2023/11/11 02:55:40;;;;;;;;;2.25;2.00;;;;;-143.90;100.00;74485.91;4985272;28;104122;-74
2023/11/11 02:58:07;;;;;;;;;1.50;1.50;;;;;-143.90;100.00;74485.91;4984039;28;101971;-72
2023/11/11 03:00:33;;;;;;;;;4.00;3.25;;;;;-143.90;100.00;74487.97;4987325;28;102178;-73
2023/11/11 03:03:00;;;;;;;;;3.00;2.25;;;;;-143.90;100.00;74492.09;4985554;28;102457;-73
2023/11/11 03:05:29;;;;;;;;;2.25;2.25;;;;;-143.90;100.00;74485.91;4979822;28;103617;-73
2023/11/11 03:07:56;;;;;;;;;2.50;1.75;;;;;-143.90;100.00;74483.84;4983505;28;102160;-73
2023/11/11 03:10:25;;;;;;;;;2.25;2.00;;;;;-143.90;100.00;74481.78;4982833;28;102365;-73
2023/11/11 03:12:51;;;;;;;;;2.25;2.25;;;;;-143.90;100.00;74487.97;4972200;28;102558;-73
2023/11/11 03:15:18;;;;;;;;;3.00;2.25;;;;;-143.90;100.00;74481.78;4983506;28;104566;-73
2023/11/11 03:17:45;;;;;;;;;2.00;2.00;;;;;-143.90;100.00;74481.78;4968814;28;102384;-72
2023/11/11 03:20:12;;;;;;;;;2.00;2.00;;;;;-143.90;100.00;74481.78;4985807;28;102275;-73
2023/11/11 03:22:39;;;;;;;;;6.00;3.75;;;;;-143.90;100.00;74485.91;4989591;28;102269;-73
2023/11/11 03:25:06;;;;;;;;;3.00;3.00;;;;;-143.90;100.00;74485.91;4964895;28;105494;-73
2023/11/11 03:27:32;;;;;;;;;2.75;2.75;;;;;-143.90;100.00;74485.91;4962639;28;102384;-73
2023/11/11 03:29:59;;;;;;;;;3.00;3.00;;;;;-143.90;100.00;74494.16;4979719;28;102791;-73
2023/11/11 03:32:26;;;;;;;;;7.75;6.00;;;;;-143.90;100.00;74498.31;4983493;28;102202;-73
2023/11/11 03:34:53;;;;;;;;;7.00;5.00;;;;;-143.90;100.00;74498.31;4968719;28;104205;-73
2023/11/11 03:37:20;;;;;;;;;8.75;7.00;;;;;-143.90;100.00;74494.16;4982741;28;102125;-73
2023/11/11 03:39:46;;;;;;;;;5.50;4.75;;;;;-143.90;100.00;74498.31;4986841;28;102237;-72
2023/11/11 03:42:13;;;;;;;;;8.25;8.25;;;;;-143.90;100.00;74498.31;4984884;28;102259;-73
2023/11/11 03:44:40;;;;;;;;;8.50;6.00;;;;;-143.90;100.00;74490.03;4988572;28;103340;-73
2023/11/11 03:47:07;;;;;;;;;7.25;5.00;;;;;-143.90;100.00;74490.03;4979340;28;102382;-73
2023/11/11 03:49:34;;;;;;;;;7.25;4.75;;;;;-143.90;100.00;74492.09;4972209;28;102011;-73
2023/11/11 03:52:00;;;;;;;;;7.00;7.00;;;;;-143.90;100.00;74494.16;4986357;28;103803;-74
2023/11/11 03:54:27;;;;;;;;;4.00;4.00;;;;;-143.90;100.00;74490.03;4978122;28;105948;-74
2023/11/11 03:56:54;;;;;;;;;4.00;4.00;;;;;-143.90;100.00;74481.78;4988437;28;102315;-73
2023/11/11 03:59:21;;;;;;;;;2.25;2.25;;;;;-143.90;100.00;74479.69;4979916;28;102429;-73
2023/11/11 04:01:47;;;;;;;;;3.00;3.00;;;;;-143.90;100.00;74473.50;4955450;28;102264;-73
2023/11/11 04:04:14;;;;;;;;;3.25;2.00;;;;;-143.90;100.00;74471.44;4982094;28;103569;-74
2023/11/11 04:06:41;;;;;;;;;5.25;3.00;;;;;-143.90;100.00;74481.78;4972054;28;102370;-73
2023/11/11 04:09:08;;;;;;;;;5.75;3.75;;;;;-143.90;100.00;74473.50;4982907;28;102280;-73
2023/11/11 04:11:34;;;;;;;;;3.25;3.25;;;;;-143.90;100.00;74473.50;4974673;28;102294;-74
2023/11/11 04:14:02;;;;;;;;;3.00;3.00;;;;;-143.90;100.00;74473.50;4959487;28;103975;-74
2023/11/11 04:16:29;;;;;;;;;6.00;4.00;;;;;-143.90;100.00;74473.50;4985766;28;102344;-74
2023/11/11 04:18:57;;;;;;;;;2.75;2.00;;;;;-143.90;100.00;74469.38;4986369;28;102198;-74
2023/11/11 04:21:25;;;;;;;;;3.25;2.50;;;;;-143.90;100.00;74483.84;4981394;28;102711;-74
2023/11/11 04:23:51;;;;;;;;;3.50;3.50;;;;;-143.90;100.00;74475.56;4984997;28;105425;-73
2023/11/11 04:26:18;;;;;;;;;6.25;6.00;;;;;-143.90;100.00;74473.50;4978334;28;101948;-73
2023/11/11 04:28:45;;;;;;;;;4.75;4.00;;;;;-143.90;100.00;74471.44;4989476;28;102394;-74
2023/11/11 04:31:13;;;;;;;;;7.50;4.25;;;;;-143.90;100.00;74477.63;4987118;28;102363;-75
2023/11/11 04:33:40;;;;;;;;;8.00;6.75;;;;;-143.90;100.00;74473.50;4989371;28;104180;-74
2023/11/11 04:36:06;;;;;;;;;8.25;6.00;;;;;-143.90;100.00;74467.31;4982743;28;102545;-74
2023/11/11 04:38:36;;;;;;;;;7.50;5.75;;;;;-143.90;100.00;74471.44;4983894;28;103070;-74
2023/11/11 04:41:04;;;;;;;;;8.00;7.25;;;;;-143.90;100.00;74465.22;4976686;28;102265;-74
2023/11/11 04:43:34;;;;;;;;;8.25;8.00;;;;;-143.90;100.00;74461.09;4976097;28;105398;-72
2023/11/11 04:46:02;;;;;;;;;10.50;7.50;;;;;-143.90;100.00;74463.16;4989921;28;102477;-73
2023/11/11 04:48:29;;;;;;;;;7.75;7.00;;;;;-143.90;100.00;74465.22;4974541;28;102036;-74
2023/11/11 04:50:56;;;;;;;;;7.75;6.75;;;;;-143.90;100.00;74477.63;4979311;28;102422;-74
2023/11/11 04:53:23;;;;;;;;;8.75;7.00;;;;;-143.90;100.00;74463.16;4965389;28;104202;-73
2023/11/11 04:55:50;;;;;;;;;8.50;7.00;;;;;-143.90;100.00;74463.16;4988649;28;106884;-73
2023/11/11 04:58:17;;;;;;;;;13.00;12.00;;;;;-143.90;100.00;74465.22;4981098;28;102960;-73
2023/11/11 05:00:44;;;;;;;;;9.50;8.00;;;;;-143.90;100.00;74467.31;4964579;28;102354;-75
2023/11/11 05:03:12;;;;;;;;;5.50;5.50;;;;;-143.90;100.00;74465.22;4985665;28;104117;-73
2023/11/11 05:05:40;;;;;;;;;6.00;6.00;;;;;-143.90;100.00;74467.31;4957970;28;102184;-73
2023/11/11 05:08:08;;;;;;;;;9.00;8.00;;;;;-143.90;100.00;74475.56;4984434;28;102375;-73
2023/11/11 05:10:35;;;;;;;;;7.25;6.50;;;;;-143.90;100.00;74473.50;4982119;28;102431;-73
2023/11/11 05:13:08;;;;;;;;;7.00;6.00;;;;;-143.90;100.00;74469.38;4998105;28;104222;-73
2023/11/11 05:15:42;;;;;;;;;5.00;4.00;;;;;-143.90;100.00;74473.50;4987535;28;102858;-73
2023/11/11 05:18:09;;;;;;;;;8.50;7.75;;;;;-143.90;100.00;74477.63;4951252;28;101930;-72
2023/11/11 05:20:39;;;;;;;;;2.00;2.00;;;;;-143.90;100.00;74477.63;4985386;28;102464;-72
2023/11/11 05:23:09;;;;;;;;;8.00;7.25;;;;;-143.90;100.00;74483.84;4982267;28;103357;-72
2023/11/11 05:25:37;;;;;;;;;9.75;9.75;;;;;-143.90;100.00;74479.69;4985354;28;103426;-73
2023/11/11 05:28:03;;;;;;;;;8.00;4.00;;;;;-143.90;100.00;74498.31;4978367;28;102060;-74
2023/11/11 05:30:30;;;;;;;;;5.25;3.00;;;;;-143.90;100.00;74498.31;4987425;28;102200;-73
2023/11/11 05:32:57;;;;;;;;;4.00;3.75;;;;;-143.90;100.00;74504.50;4964147;28;105198;-73
2023/11/11 05:35:24;;;;;;;;;6.75;6.50;;;;;-143.90;100.00;74494.16;4982019;28;102502;-74
2023/11/11 05:37:50;;;;;;;;;4.00;3.25;;;;;-143.90;100.00;74500.38;4986717;28;102254;-73
2023/11/11 05:40:20;;;;;;;;;8.50;8.50;;;;;-143.90;100.00;74500.38;4984807;28;102024;-73
2023/11/11 05:42:47;;;;;;;;;14.00;13.25;;;;;-143.90;100.00;74502.44;4968779;28;104112;-73
2023/11/11 05:45:16;;;;;;;;;14.25;13.50;;;;;-143.90;100.00;74502.44;4964843;28;102876;-73
2023/11/11 05:47:44;;;;;;;;;7.50;7.50;;;;;-143.90;100.00;74498.31;4984692;28;102387;-73
2023/11/11 05:50:11;;;;;;;;;11.75;9.50;;;;;-143.90;100.00;74498.31;4966322;28;102483;-73
2023/11/11 05:52:38;;;;;;;;;13.00;10.75;;;;;-143.90;100.00;74494.16;4984219;28;104259;-74
2023/11/11 05:55:08;;;;;;;;;20.50;15.75;;;;;-143.90;100.00;74492.09;4978626;28;101989;-73
2023/11/11 05:57:38;;;;;;;;;12.25;7.25;;;;;-143.90;100.00;74492.09;4980324;28;102207;-73
2023/11/11 06:00:13;;;;;;;;;11.75;9.00;;;;;-143.90;100.00;74494.16;4982843;28;102038;-73
2023/11/11 06:02:41;;;;;;;;;5.50;3.75;;;;;-143.90;100.00;74502.44;4966205;28;104224;-73
2023/11/11 06:05:08;;;;;;;;;11.25;8.00;;;;;-143.90;100.00;74494.16;4988198;28;102033;-73
2023/11/11 06:07:35;;;;;;;;;9.25;9.25;;;;;-143.90;100.00;74502.44;4976236;28;102039;-73
2023/11/11 06:10:04;;;;;;;;;8.00;7.00;;;;;-143.90;100.00;74502.44;4990784;28;102107;-73
2023/11/11 06:12:31;;;;;;;;;7.25;7.25;;;;;-143.90;100.00;74496.25;4985730;28;103922;-73
2023/11/11 06:14:59;;;;;;;;;8.50;6.00;;;;;-143.90;100.00;74494.16;4966840;28;102297;-74
2023/11/11 06:17:25;;;;;;;;;2.50;1.00;;;;;-143.90;100.00;74500.38;4981724;28;103867;-73
2023/11/11 06:19:53;;;;;;;;;9.00;8.75;;;;;-143.90;100.00;74496.25;4983674;28;103247;-73
2023/11/11 06:22:20;;;;;;;;;9.25;6.75;;;;;-143.90;100.00;74506.56;4978760;28;104275;-73
2023/11/11 06:24:47;;;;;;;;;6.00;4.00;;;;;-143.90;100.00;74502.44;4983401;28;102453;-73
2023/11/11 06:27:13;;;;;;;;;3.50;3.50;;;;;-143.90;100.00;74500.38;4989790;28;103376;-75
2023/11/11 06:29:40;;;;;;;;;6.00;4.00;;;;;-143.90;100.00;74500.38;4962572;28;102199;-74
2023/11/11 06:32:07;;;;;;;;;7.75;6.00;;;;;-143.90;100.00;74506.56;4973999;28;103954;-73
2023/11/11 06:34:33;;;;;;;;;4.50;4.50;;;;;-143.90;100.00;74494.16;4985537;28;102045;-73
2023/11/11 06:37:00;;;;;;;;;5.50;4.00;;;;;-143.90;100.00;74492.09;4993874;28;102308;-74
2023/11/11 06:39:30;;;;;;;;;2.25;2.25;;;;;-143.90;100.00;74492.09;4986450;28;101948;-74
2023/11/11 06:41:57;;;;;;;;;8.25;6.75;;;;;-143.90;100.00;74485.91;4983580;28;104589;-73
2023/11/11 06:44:24;;;;;;;;;9.50;8.00;;;;;-143.90;100.00;74485.91;4988972;28;102730;-73
2023/11/11 06:46:50;;;;;;;;;7.00;7.00;;;;;-143.90;100.00;74483.84;4983544;28;101969;-73
2023/11/11 06:49:17;;;;;;;;;7.50;4.50;;;;;-143.90;100.00;74485.91;4996064;28;102309;-74
2023/11/11 06:51:44;;;;;;;;;3.75;3.75;;;;;-143.90;100.00;74483.84;4978949;28;103582;-73
2023/11/11 06:54:11;;;;;;;;;6.50;5.25;;;;;-143.90;100.00;74477.63;4989961;28;102340;-74
2023/11/11 06:56:37;;;;;;;;;9.75;7.00;;;;;-143.90;100.00;74479.69;4980794;28;103162;-74
2023/11/11 06:59:04;;;;;;;;;4.00;4.00;;;;;-143.90;100.00;74473.50;4985344;28;102057;-74
2023/11/11 07:01:31;;;;;;;;;6.25;5.25;;;;;-143.90;100.00;74471.44;4985120;28;105128;-73
2023/11/11 07:03:58;;;;;;;;;7.75;6.00;;;;;-143.90;100.00;74463.16;4970091;28;102172;-73
2023/11/11 07:06:25;;;;;;;;;14.50;10.50;;;;;-143.90;100.00;74450.75;4986034;28;101966;-74
2023/11/11 07:08:53;;;;;;;;;5.75;5.75;;;;;-143.90;100.00;74450.75;4977854;28;103336;-75
2023/11/11 07:11:19;;;;;;;;;4.75;3.25;;;;;-143.90;100.00;74461.09;4966143;28;104450;-73
2023/11/11 07:13:46;;;;;;;;;8.25;8.25;;;;;-143.90;100.00;74456.97;4980265;28;102852;-72
2023/11/11 07:16:16;;;;;;;;;7.00;4.00;;;;;-143.90;100.00;74450.75;4990907;28;102037;-74
2023/11/11 07:18:44;;;;;;;;;5.25;4.75;;;;;-143.90;100.00;74448.69;4983083;28;102432;-72
2023/11/11 07:21:24;;;;;;;;;9.00;7.75;;;;;-143.90;100.00;74452.84;4983076;28;104379;-73
2023/11/11 07:23:52;;;;;;;;;7.75;6.00;;;;;-143.90;100.00;74446.63;4981391;28;102931;-74
2023/11/11 07:26:20;;;;;;;;;7.50;7.50;;;;;-143.90;100.00;74444.56;4964750;28;102475;-73
2023/11/11 07:28:48;;;;;;;;;10.50;7.50;;;;;-143.90;100.00;74440.44;4968872;28;102546;-73
2023/11/11 07:31:16;;;;;;;;;7.00;5.50;;;;;-143.90;100.00;74432.16;4984674;28;105082;-73
2023/11/11 07:33:44;;;;;;;;;7.00;4.00;;;;;-143.90;100.00;74430.09;4967573;28;102691;-73
2023/11/11 07:36:12;;;;;;;;;4.75;4.25;;;;;-143.90;100.00;74428.03;4966831;28;102377;-73
2023/11/11 07:38:40;;;;;;;;;2.75;1.25;;;;;-143.90;100.00;74428.03;4990603;28;102275;-73
2023/11/11 07:41:07;;;;;;;;;6.50;5.25;;;;;-143.90;100.00;74432.16;4963602;28;104820;-74
2023/11/11 07:43:35;;;;;;;;;13.75;12.75;;;;;-143.90;100.00;74436.28;4989985;28;102218;-72
2023/11/11 07:46:05;;;;;;;;;8.50;7.75;;;;;-143.90;100.00;74442.50;4981419;28;102087;-72
2023/11/11 07:48:33;;;;;;;;;18.50;14.50;;;;;-143.90;100.00;74452.84;4990558;28;102034;-73
2023/11/11 07:51:01;;;;;;;;;14.00;13.00;;;;;-143.90;100.00;74452.84;4963560;28;104096;-73
2023/11/11 07:53:28;;;;;;;;;16.00;14.25;;;;;-143.90;100.00;74461.09;4984867;28;102304;-73
2023/11/11 07:55:55;;;;;;;;;1.00;0.00;;;;;-143.90;100.00;74465.22;4988644;28;102122;-74
2023/11/11 07:58:22;;;;;;;;;15.00;10.75;;;;;-143.90;100.00;74459.03;4979437;28;101875;-73
2023/11/11 08:00:52;;;;;;;;;10.00;10.00;;;;;-143.90;100.00;74456.97;4973874;28;103452;-73
2023/11/11 08:03:18;;;;;;;;;15.00;12.25;;;;;-143.90;100.00;74459.03;4987415;28;102008;-74
2023/11/11 08:05:45;;;;;;;;;14.75;12.00;;;;;-143.90;100.00;74463.16;4988475;28;102193;-72
2023/11/11 08:08:12;;;;;;;;;10.50;9.00;;;;;-143.90;100.00;74454.91;4982326;28;104051;-75
2023/11/11 08:10:44;;;;;;;;;10.00;10.00;;;;;-143.90;100.00;74456.97;4981826;28;105392;-73
2023/11/11 08:13:11;;;;;;;;;17.50;16.75;;;;;-143.90;100.00;74469.38;4980751;28;101988;-73
2023/11/11 08:15:38;;;;;;;;;20.75;16.00;;;;;-143.90;100.00;74469.38;4972989;28;102535;-73
2023/11/11 08:18:05;;;;;;;;;31.00;27.75;;;;;-143.90;100.00;74473.50;4988272;28;103103;-73
2023/11/11 08:20:32;;;;;;;;;42.00;35.75;;;;;-143.90;100.00;74475.56;4980497;28;104111;-74
2023/11/11 08:22:58;;;;;;;;;26.75;24.00;;;;;-143.90;100.00;74461.09;4983384;28;102320;-73
2023/11/11 08:25:26;;;;;;;;;16.25;13.25;;;;;-143.90;100.00;74452.84;4968837;28;102928;-74
2023/11/11 08:27:53;;;;;;;;;25.25;22.00;;;;;-143.90;100.00;74448.69;4961979;28;102604;-74
2023/11/11 08:30:22;;;;;;;;;29.00;23.75;;;;;-143.90;100.00;74446.63;4979127;28;103287;-73
2023/11/11 08:32:49;;;;;;;;;26.00;25.00;;;;;-143.90;100.00;74438.38;4982981;28;102601;-73
2023/11/11 08:35:16;;;;;;;;;50.00;39.00;;;;;-143.90;100.00;74448.69;4980507;28;102385;-73
2023/11/11 08:37:43;;;;;;;;;46.75;36.00;;;;;-143.90;100.00;74440.44;4980968;28;102528;-73
2023/11/11 08:40:11;;;;;;;;;47.50;35.00;;;;;-143.90;100.00;74417.69;4988552;28;103873;-73
2023/11/11 08:42:39;;;;;;;;;41.25;29.50;;;;;-143.90;100.00;74403.22;4974450;28;102313;-74
2023/11/11 08:45:09;;;;;;;;;27.00;21.00;;;;;-143.90;100.00;74399.09;4966732;28;102038;-74
2023/11/11 08:47:37;;;;;;;;;40.50;31.50;;;;;-143.90;100.00;74411.50;4983057;28;102338;-74
2023/11/11 08:50:09;;;;;;;;;35.00;27.50;;;;;-143.90;100.00;74382.56;4977874;28;104298;-73
2023/11/11 08:52:41;;;;;;;;;22.25;20.00;;;;;-143.90;100.00;74366.00;4974654;28;102684;-72
2023/11/11 08:55:10;;;;;;;;;53.00;39.75;;;;;-143.90;100.00;74384.63;4964926;28;102328;-71
2023/11/11 08:57:38;;;;;;;;;47.25;36.75;;;;;-143.90;100.00;74359.81;4986127;28;103548;-72
2023/11/11 09:00:09;;;;;;;;;29.50;26.25;;;;;-143.90;100.00;74351.53;4984594;28;103583;-74
2023/11/11 09:02:37;;;;;;;;;31.75;23.75;;;;;-143.90;100.00;74366.00;4962472;28;102390;-74
2023/11/11 09:05:05;;;;;;;;;58.50;46.50;;;;;-143.90;100.00;74392.88;4978007;28;102016;-73
2023/11/11 09:07:36;;;;;;;;;52.75;42.25;;;;;-143.90;100.00;74378.41;4982334;28;103312;-73
2023/11/11 09:10:03;;;;;;;;;54.00;39.75;;;;;-143.90;100.00;74368.09;4977961;28;104392;-73
2023/11/11 09:12:30;;;;;;;;;33.75;28.75;;;;;-143.90;100.00;74370.16;4984341;28;102216;-73
2023/11/11 09:14:58;;;;;;;;;51.50;38.75;;;;;-143.90;100.00;74378.41;4980622;28;103080;-73
2023/11/11 09:17:25;;;;;;;;;35.00;29.25;;;;;-143.90;100.00;74363.94;4961852;28;102478;-72
2023/11/11 09:19:51;;;;;;;;;49.75;38.75;;;;;-143.90;100.00;74376.34;4978393;28;104263;-73
2023/11/11 09:22:19;;;;;;;;;40.00;36.00;;;;;-143.90;100.00;74382.56;4983801;28;102217;-73
2023/11/11 09:24:46;;;;;;;;;38.00;35.00;;;;;-143.90;100.00;74378.41;4981157;28;102308;-73
2023/11/11 09:27:13;;;;;;;;;53.00;38.00;;;;;-143.90;100.00;74399.09;4966156;28;102301;-74
2023/11/11 09:29:41;;;;;;;;;58.00;42.75;;;;;-143.90;100.00;74421.81;4984716;28;104507;-73
2023/11/11 09:32:09;;;;;;;;;48.25;38.50;;;;;-143.90;100.00;74423.88;4977565;28;102088;-73
2023/11/11 09:34:36;;;;;;;;;36.00;32.25;;;;;-143.90;100.00;74415.63;4978268;28;102349;-72
2023/11/11 09:37:03;;;;;;;;;34.00;26.25;;;;;-143.90;100.00;74413.56;4966324;28;103798;-74
2023/11/11 09:39:30;;;;;;;;;50.25;36.50;;;;;-143.90;100.00;74425.97;4982296;28;104246;-74
2023/11/11 09:41:57;;;;;;;;;47.50;37.25;;;;;-143.90;100.00;74432.16;4984230;28;103611;-74
2023/11/11 09:44:24;;;;;;;;;57.00;43.50;;;;;-143.90;100.00;74448.69;4966035;28;102106;-73
2023/11/11 09:46:56;;;;;;;;;50.75;39.00;;;;;-143.90;100.00;74417.69;4964119;28;102438;-73
2023/11/11 09:49:24;;;;;;;;;55.25;42.25;;;;;-143.90;100.00;74428.03;4977480;28;104406;-73
2023/11/11 09:51:52;;;;;;;;;50.00;41.25;;;;;-143.90;100.00;74415.63;4965614;28;102803;-73
2023/11/11 09:54:19;;;;;;;;;47.75;37.00;;;;;-143.90;100.00;74401.16;4985129;28;102150;-74
2023/11/11 09:56:47;;;;;;;;;33.00;26.25;;;;;-143.90;100.00;74384.63;4985474;28;102151;-73
2023/11/11 09:59:18;;;;;;;;;37.75;35.25;;;;;-143.90;100.00;74376.34;4979913;28;103557;-73
2023/11/11 10:01:45;;;;;;;;;57.50;41.50;;;;;-143.90;100.00;74384.63;4962856;28;102519;-73
2023/11/11 10:04:12;;;;;;;;;51.50;43.00;;;;;-143.90;100.00;74386.69;4991657;28;101926;-74
2023/11/11 10:06:39;;;;;;;;;59.50;46.25;;;;;-143.90;100.00;74399.09;4985824;28;102479;-74
2023/11/11 10:09:08;;;;;;;;;57.00;43.00;;;;;-143.90;100.00;74386.69;4985925;28;104013;-73
2023/11/11 10:11:35;;;;;;;;;57.00;43.00;;;;;-143.90;100.00;74384.63;4987294;28;102099;-73
2023/11/11 10:14:03;;;;;;;;;41.25;36.00;;;;;-143.90;100.00;74345.34;4984526;28;104449;-73
2023/11/11 10:16:32;;;;;;;;;51.00;38.00;;;;;-143.90;100.00;74339.16;4962618;28;102053;-73
2023/11/11 10:18:58;;;;;;;;;50.50;38.75;;;;;-143.90;100.00;74341.22;4965386;28;103883;-73
2023/11/11 10:21:26;;;;;;;;;44.75;30.75;;;;;-143.90;100.00;74308.13;4986352;28;102299;-73
2023/11/11 10:23:57;;;;;;;;;36.75;29.25;;;;;-143.90;100.00;74281.28;4982830;28;102261;-74
2023/11/11 10:26:23;;;;;;;;;22.50;20.75;;;;;-143.90;100.00;74262.66;4966281;28;102037;-74
2023/11/11 10:28:51;;;;;;;;;48.75;38.25;;;;;-143.90;100.00;74304.00;4966413;28;104037;-74
2023/11/11 10:31:21;;;;;;;;;48.75;38.75;;;;;-143.90;100.00;74287.47;4989692;28;103469;-74
2023/11/11 10:33:49;;;;;;;;;41.25;30.75;;;;;-143.90;100.00;74260.59;4977147;28;102099;-73
2023/11/11 10:36:17;;;;;;;;;28.25;27.25;;;;;-143.90;100.00;74242.00;4989768;28;102438;-74
2023/11/11 10:38:44;;;;;;;;;33.50;27.50;;;;;-143.90;100.00;74229.59;4984462;28;105415;-74
2023/11/11 10:41:14;;;;;;;;;23.50;18.75;;;;;-143.90;100.00;74221.31;4976368;28;102597;-75
2023/11/11 10:43:42;;;;;;;;;48.50;37.50;;;;;-143.90;100.00;74254.41;4982549;28;103357;-74
2023/11/11 10:46:09;;;;;;;;;32.00;29.75;;;;;-143.90;100.00;74237.88;4980631;28;103522;-74
2023/11/11 10:48:37;;;;;;;;;21.00;20.00;;;;;-143.90;100.00;74225.47;4982741;28;104410;-74
2023/11/11 10:51:07;;;;;;;;;29.25;25.00;;;;;-143.90;100.00;74233.72;4980559;28;102322;-75
2023/11/11 10:53:36;;;;;;;;;27.75;24.50;;;;;-143.90;100.00;74227.53;4987418;28;101994;-75
2023/11/11 10:56:05;;;;;;;;;22.00;18.50;;;;;-143.90;100.00;74217.19;4979259;28;102272;-75